Time;durP1;ratioP1;P1;durP2;ratioP2;P2;SDS_P1;SDS_P2;PMS_P1;PMS_P2;Temp;Humidity;BMP_temperature;BMP_pressure;BME280_temperature;BME280_humidity;BME280_pressure;Samples;Min_cycle;Max_cycle;Signal;HPM_P1;HPM_P2
2022/10/17 00:01:05;;;;;;;;;12.75;12.75;;;;;;;;5076927;28;45326;-74
2022/10/17 00:03:31;;;;;;;;;12.25;12.25;;;;;;;;5081221;28;45341;-75
2022/10/17 00:05:57;;;;;;;;;11.50;11.50;;;;;;;;5083581;28;45313;-73
2022/10/17 00:08:22;;;;;;;;;12.75;12.75;;;;;;;;5079444;28;45429;-76
2022/10/17 00:10:58;;;;;;;;;14.75;14.75;;;;;;;;5079674;28;45525;-75
2022/10/17 00:13:24;;;;;;;;;15.50;15.50;;;;;;;;5078591;28;45337;-71
2022/10/17 00:15:49;;;;;;;;;13.25;13.25;;;;;;;;5078208;28;45329;-73
2022/10/17 00:18:14;;;;;;;;;13.00;13.00;;;;;;;;5077396;28;45456;-71
2022/10/17 00:20:39;;;;;;;;;14.50;14.50;;;;;;;;5077698;28;45190;-70
2022/10/17 00:23:05;;;;;;;;;12.00;12.00;;;;;;;;5076307;28;45373;-73
2022/10/17 00:25:30;;;;;;;;;13.25;13.25;;;;;;;;5077777;28;45401;-70
2022/10/17 00:27:55;;;;;;;;;13.25;13.25;;;;;;;;5077684;28;46441;-69
2022/10/17 00:30:20;;;;;;;;;11.50;11.50;;;;;;;;5078780;28;45252;-72
2022/10/17 00:32:45;;;;;;;;;16.25;16.25;;;;;;;;5078087;28;45268;-69
2022/10/17 00:35:11;;;;;;;;;15.00;15.00;;;;;;;;5077889;28;45276;-71
2022/10/17 00:37:36;;;;;;;;;17.00;17.00;;;;;;;;5077280;28;46219;-74
2022/10/17 00:40:02;;;;;;;;;12.00;12.00;;;;;;;;5078380;28;45246;-76
2022/10/17 00:42:27;;;;;;;;;14.50;14.50;;;;;;;;5078030;28;45385;-77
2022/10/17 00:45:05;;;;;;;;;11.75;11.75;;;;;;;;5077363;28;45530;-76
2022/10/17 00:47:30;;;;;;;;;15.50;15.50;;;;;;;;5077289;28;45528;-74
2022/10/17 00:49:56;;;;;;;;;11.25;11.25;;;;;;;;5077730;28;45321;-75
2022/10/17 00:52:23;;;;;;;;;15.75;14.75;;;;;;;;5079686;28;45317;-74
2022/10/17 00:54:53;;;;;;;;;16.75;16.25;;;;;;;;5078817;28;45396;-77
2022/10/17 00:57:19;;;;;;;;;10.75;10.75;;;;;;;;5078447;28;45677;-77
2022/10/17 00:59:46;;;;;;;;;13.75;13.75;;;;;;;;5078254;28;45578;-75
2022/10/17 01:02:13;;;;;;;;;13.75;13.75;;;;;;;;5077828;28;45523;-75
2022/10/17 01:04:40;;;;;;;;;15.25;15.25;;;;;;;;5077811;27;45461;-76
2022/10/17 01:07:06;;;;;;;;;12.50;12.50;;;;;;;;5077729;28;46586;-77
2022/10/17 01:09:31;;;;;;;;;10.25;10.25;;;;;;;;5082322;28;45307;-75
2022/10/17 01:12:15;;;;;;;;;11.25;11.25;;;;;;;;5087216;28;45855;-76
2022/10/17 01:14:46;;;;;;;;;10.75;10.25;;;;;;;;5084352;27;45576;-75
2022/10/17 01:17:11;;;;;;;;;12.25;12.25;;;;;;;;5081251;28;45271;-75
2022/10/17 01:19:40;;;;;;;;;10.50;10.50;;;;;;;;5079676;28;45388;-78
2022/10/17 01:22:16;;;;;;;;;13.00;13.00;;;;;;;;5078042;28;45397;-78
2022/10/17 01:24:54;;;;;;;;;12.00;12.00;;;;;;;;5077998;28;45380;-75
2022/10/17 01:27:34;;;;;;;;;11.50;11.50;;;;;;;;5077513;28;45389;-76
2022/10/17 01:30:05;;;;;;;;;11.75;11.75;;;;;;;;5077867;28;45219;-74
2022/10/17 01:32:42;;;;;;;;;14.50;13.50;;;;;;;;5078428;28;45375;-74
2022/10/17 01:35:12;;;;;;;;;10.75;10.75;;;;;;;;5079939;28;45319;-77
2022/10/17 01:37:45;;;;;;;;;12.50;12.50;;;;;;;;5077707;28;46225;-78
2022/10/17 01:40:23;;;;;;;;;12.00;12.00;;;;;;;;5078062;28;45481;-73
2022/10/17 01:42:48;;;;;;;;;11.00;11.00;;;;;;;;5079997;28;45349;-75
2022/10/17 01:45:26;;;;;;;;;10.75;10.75;;;;;;;;5077277;28;45393;-76
2022/10/17 01:47:52;;;;;;;;;10.75;10.75;;;;;;;;5076742;28;46119;-75
2022/10/17 01:50:19;;;;;;;;;13.00;13.00;;;;;;;;5077214;28;45476;-76
2022/10/17 01:52:49;;;;;;;;;10.25;10.25;;;;;;;;5076271;28;45185;-73
2022/10/17 01:55:19;;;;;;;;;10.25;10.25;;;;;;;;5077050;28;45381;-73
2022/10/17 01:57:48;;;;;;;;;13.00;13.00;;;;;;;;5076689;28;46347;-73
2022/10/17 02:00:16;;;;;;;;;10.75;10.75;;;;;;;;5076781;28;45512;-76
2022/10/17 02:02:43;;;;;;;;;11.50;11.50;;;;;;;;5076367;28;45433;-69
2022/10/17 02:05:09;;;;;;;;;10.00;10.00;;;;;;;;5077145;28;45315;-75
2022/10/17 02:07:34;;;;;;;;;11.50;11.50;;;;;;;;5076788;28;47272;-71
2022/10/17 02:09:59;;;;;;;;;12.00;12.00;;;;;;;;5076267;28;45459;-70
2022/10/17 02:12:27;;;;;;;;;11.00;11.00;;;;;;;;5075843;28;45207;-74
2022/10/17 02:14:58;;;;;;;;;11.50;11.50;;;;;;;;5079022;28;45287;-77
2022/10/17 02:17:43;;;;;;;;;11.50;11.50;;;;;;;;5080146;28;46224;-75
2022/10/17 02:20:20;;;;;;;;;11.75;11.75;;;;;;;;5081038;28;45337;-77
2022/10/17 02:23:06;;;;;;;;;13.25;13.25;;;;;;;;5078694;28;45262;-73
2022/10/17 02:25:37;;;;;;;;;11.00;11.00;;;;;;;;5080642;27;45319;-75
2022/10/17 02:28:26;;;;;;;;;11.25;11.25;;;;;;;;5078348;28;48286;-77
2022/10/17 02:31:17;;;;;;;;;11.25;9.50;;;;;;;;5072210;28;45383;-78
2022/10/17 02:33:49;;;;;;;;;12.25;12.25;;;;;;;;5082400;27;46658;-72
2022/10/17 02:36:19;;;;;;;;;11.50;11.50;;;;;;;;5080717;28;45419;-74
2022/10/17 02:38:45;;;;;;;;;10.75;10.75;;;;;;;;5080749;28;45868;-77
2022/10/17 02:41:14;;;;;;;;;9.50;9.50;;;;;;;;5080897;28;45264;-75
2022/10/17 02:43:42;;;;;;;;;9.00;9.00;;;;;;;;5086756;28;45332;-75
2022/10/17 02:46:07;;;;;;;;;9.00;9.00;;;;;;;;5080936;28;45440;-75
2022/10/17 02:48:45;;;;;;;;;10.00;10.00;;;;;;;;5079586;28;45381;-76
2022/10/17 02:51:16;;;;;;;;;9.25;9.25;;;;;;;;5081138;28;45373;-77
2022/10/17 02:53:48;;;;;;;;;9.25;9.25;;;;;;;;5081576;28;45476;-77
2022/10/17 02:56:17;;;;;;;;;10.75;10.75;;;;;;;;5087093;28;45223;-72
2022/10/17 02:58:45;;;;;;;;;9.00;9.00;;;;;;;;5086692;28;45372;-73
2022/10/17 03:01:11;;;;;;;;;11.25;11.25;;;;;;;;5081663;28;45266;-70
2022/10/17 03:03:37;;;;;;;;;11.00;11.00;;;;;;;;5088109;28;45315;-71
2022/10/17 03:06:02;;;;;;;;;10.50;10.50;;;;;;;;5087089;28;45668;-77
2022/10/17 03:08:27;;;;;;;;;10.00;10.00;;;;;;;;5080714;28;45367;-76
2022/10/17 03:10:52;;;;;;;;;11.25;11.25;;;;;;;;5082254;28;45246;-76
2022/10/17 03:13:17;;;;;;;;;13.25;13.25;;;;;;;;5081912;28;45243;-77
2022/10/17 03:15:43;;;;;;;;;11.00;11.00;;;;;;;;5080002;28;45411;-74
2022/10/17 03:18:08;;;;;;;;;9.50;9.50;;;;;;;;5081145;28;45261;-78
2022/10/17 03:20:33;;;;;;;;;11.25;11.25;;;;;;;;5081922;28;45323;-78
2022/10/17 03:22:58;;;;;;;;;10.00;10.00;;;;;;;;5080458;28;45426;-79
2022/10/17 03:25:24;;;;;;;;;10.50;10.50;;;;;;;;5077493;28;45416;-69
2022/10/17 03:27:50;;;;;;;;;8.25;8.25;;;;;;;;5078135;28;45497;-72
2022/10/17 03:30:15;;;;;;;;;10.00;10.00;;;;;;;;5078963;28;45331;-71
2022/10/17 03:32:40;;;;;;;;;9.00;9.00;;;;;;;;5078993;28;45290;-72
2022/10/17 03:35:05;;;;;;;;;10.75;10.75;;;;;;;;5080209;28;45387;-72
2022/10/17 03:37:31;;;;;;;;;10.75;10.75;;;;;;;;5079321;28;46309;-73
2022/10/17 03:39:56;;;;;;;;;13.75;13.75;;;;;;;;5079331;28;45311;-69
2022/10/17 03:42:21;;;;;;;;;8.50;8.50;;;;;;;;5080705;28;45438;-70
2022/10/17 03:44:46;;;;;;;;;10.75;10.75;;;;;;;;5080162;28;45235;-69
2022/10/17 03:47:11;;;;;;;;;8.75;8.75;;;;;;;;5080612;28;45370;-74
2022/10/17 03:49:37;;;;;;;;;10.25;10.25;;;;;;;;5079478;28;45355;-71
2022/10/17 03:52:02;;;;;;;;;8.75;8.75;;;;;;;;5079851;28;45427;-73
2022/10/17 03:54:27;;;;;;;;;8.50;8.50;;;;;;;;5080187;28;45394;-74
2022/10/17 03:56:53;;;;;;;;;9.25;9.25;;;;;;;;5081175;28;45378;-78
2022/10/17 03:59:18;;;;;;;;;7.75;7.75;;;;;;;;5084230;28;45853;-71
2022/10/17 04:01:43;;;;;;;;;9.50;9.50;;;;;;;;5091004;28;45280;-76
2022/10/17 04:04:08;;;;;;;;;9.75;9.75;;;;;;;;5084892;28;45197;-76
2022/10/17 04:06:34;;;;;;;;;11.25;11.25;;;;;;;;5080270;28;45983;-71
2022/10/17 04:08:59;;;;;;;;;9.00;9.00;;;;;;;;5079305;28;45264;-72
2022/10/17 04:11:24;;;;;;;;;8.25;8.25;;;;;;;;5079603;28;45401;-71
2022/10/17 04:13:54;;;;;;;;;11.25;11.25;;;;;;;;5079137;28;45169;-71
2022/10/17 04:16:19;;;;;;;;;9.75;9.75;;;;;;;;5078726;28;45503;-71
2022/10/17 04:18:44;;;;;;;;;8.50;8.50;;;;;;;;5076912;28;45406;-72
2022/10/17 04:21:11;;;;;;;;;9.00;9.00;;;;;;;;5078513;28;45416;-76
2022/10/17 04:23:36;;;;;;;;;9.00;9.00;;;;;;;;5078898;28;45457;-74
2022/10/17 04:26:03;;;;;;;;;10.00;10.00;;;;;;;;5079403;28;48519;-74
2022/10/17 04:28:28;;;;;;;;;9.25;9.25;;;;;;;;5078209;28;45328;-71
2022/10/17 04:30:57;;;;;;;;;11.50;11.50;;;;;;;;5077183;28;45227;-73
2022/10/17 04:33:22;;;;;;;;;8.00;8.00;;;;;;;;5110948;27;45358;-75
2022/10/17 04:35:57;;;;;;;;;8.75;8.75;;;;;;;;5080429;28;46000;-75
2022/10/17 04:38:23;;;;;;;;;10.25;10.25;;;;;;;;5077463;28;45358;-74
2022/10/17 04:40:48;;;;;;;;;10.00;8.00;;;;;;;;5078088;28;45337;-74
2022/10/17 04:43:13;;;;;;;;;14.50;14.50;;;;;;;;5084878;28;45260;-73
2022/10/17 04:45:38;;;;;;;;;10.25;10.25;;;;;;;;5078406;28;45431;-73
2022/10/17 04:48:04;;;;;;;;;10.00;8.25;;;;;;;;5076532;28;45259;-73
2022/10/17 04:50:29;;;;;;;;;10.75;10.75;;;;;;;;5077470;28;45300;-73
2022/10/17 04:52:54;;;;;;;;;9.50;9.50;;;;;;;;5077665;28;45418;-73
2022/10/17 04:55:19;;;;;;;;;8.75;8.75;;;;;;;;5076765;28;45648;-72
2022/10/17 04:57:44;;;;;;;;;9.25;9.25;;;;;;;;5078749;28;45264;-72
2022/10/17 05:00:10;;;;;;;;;10.00;10.00;;;;;;;;5078308;28;45391;-74
2022/10/17 05:02:35;;;;;;;;;7.25;7.25;;;;;;;;5076902;28;45362;-72
2022/10/17 05:05:00;;;;;;;;;9.25;9.25;;;;;;;;5076637;28;45509;-69
2022/10/17 05:07:26;;;;;;;;;9.25;9.25;;;;;;;;5076291;28;45410;-72
2022/10/17 05:09:51;;;;;;;;;12.75;12.75;;;;;;;;5076023;28;45818;-70
2022/10/17 05:12:16;;;;;;;;;13.25;13.25;;;;;;;;5076469;28;45471;-70
2022/10/17 05:14:41;;;;;;;;;12.50;12.25;;;;;;;;5076154;28;45375;-72
2022/10/17 05:17:07;;;;;;;;;10.75;10.75;;;;;;;;5076062;28;45418;-71
2022/10/17 05:19:32;;;;;;;;;9.75;9.75;;;;;;;;5076609;28;45462;-71
2022/10/17 05:21:57;;;;;;;;;12.25;10.50;;;;;;;;5076454;28;45518;-72
2022/10/17 05:24:23;;;;;;;;;11.75;11.75;;;;;;;;5076776;28;45382;-71
2022/10/17 05:26:51;;;;;;;;;10.25;10.25;;;;;;;;5077691;28;45410;-73
2022/10/17 05:29:16;;;;;;;;;10.75;10.75;;;;;;;;5078381;28;45307;-77
2022/10/17 05:31:41;;;;;;;;;13.75;13.75;;;;;;;;5079120;28;45238;-74
2022/10/17 05:34:07;;;;;;;;;10.50;10.50;;;;;;;;5079340;28;45909;-75
2022/10/17 05:36:32;;;;;;;;;19.00;19.00;;;;;;;;5079180;28;45222;-73
2022/10/17 05:38:57;;;;;;;;;12.50;12.50;;;;;;;;5080613;27;45498;-72
2022/10/17 05:41:22;;;;;;;;;14.75;14.75;;;;;;;;5091242;27;45628;-72
2022/10/17 05:43:49;;;;;;;;;11.00;11.00;;;;;;;;5098773;27;46181;-74
2022/10/17 05:46:14;;;;;;;;;12.00;12.00;;;;;;;;5098564;27;45470;-76
2022/10/17 05:48:39;;;;;;;;;12.25;12.25;;;;;;;;5102703;27;45533;-73
2022/10/17 05:51:06;;;;;;;;;12.75;12.25;;;;;;;;5104762;27;45356;-73
2022/10/17 05:53:32;;;;;;;;;12.75;12.75;;;;;;;;5101156;27;46112;-74
2022/10/17 05:55:58;;;;;;;;;17.25;17.25;;;;;;;;5100723;27;45540;-78
2022/10/17 05:58:24;;;;;;;;;9.00;9.00;;;;;;;;5100207;27;45327;-71
2022/10/17 06:00:49;;;;;;;;;9.50;9.50;;;;;;;;5100280;27;45199;-76
2022/10/17 06:03:14;;;;;;;;;13.00;13.00;;;;;;;;5099421;27;45389;-74
2022/10/17 06:05:39;;;;;;;;;9.00;9.00;;;;;;;;5118977;27;45403;-72
2022/10/17 06:08:04;;;;;;;;;11.00;11.00;;;;;;;;5114959;27;45136;-75
2022/10/17 06:10:30;;;;;;;;;10.50;10.00;;;;;;;;5096422;27;45407;-73
2022/10/17 06:12:56;;;;;;;;;9.25;9.25;;;;;;;;5094574;27;45458;-74
2022/10/17 06:15:21;;;;;;;;;11.50;11.50;;;;;;;;5098397;27;45821;-73
2022/10/17 06:17:46;;;;;;;;;13.00;13.00;;;;;;;;5092707;27;45152;-75
2022/10/17 06:20:12;;;;;;;;;11.50;11.50;;;;;;;;5099794;27;45344;-75
2022/10/17 06:22:37;;;;;;;;;11.25;11.25;;;;;;;;5096489;27;46092;-75
2022/10/17 06:25:02;;;;;;;;;12.75;12.75;;;;;;;;5100486;27;45443;-69
2022/10/17 06:27:28;;;;;;;;;13.25;13.25;;;;;;;;5101336;27;45421;-80
2022/10/17 06:29:53;;;;;;;;;12.50;12.25;;;;;;;;5102796;27;45500;-71
2022/10/17 06:32:18;;;;;;;;;12.25;12.25;;;;;;;;5100947;27;46517;-69
2022/10/17 06:34:43;;;;;;;;;13.50;13.50;;;;;;;;5101849;27;45171;-73
2022/10/17 06:37:09;;;;;;;;;10.25;10.25;;;;;;;;5103793;27;45414;-73
2022/10/17 06:39:34;;;;;;;;;15.75;15.75;;;;;;;;5099320;27;45622;-78
2022/10/17 06:42:00;;;;;;;;;11.25;11.25;;;;;;;;5100130;27;45455;-68
2022/10/17 06:44:29;;;;;;;;;14.50;14.50;;;;;;;;5100060;27;45303;-72
2022/10/17 06:46:54;;;;;;;;;11.50;11.50;;;;;;;;5099867;27;45288;-76
2022/10/17 06:49:19;;;;;;;;;14.00;14.00;;;;;;;;5099444;27;45305;-70
2022/10/17 06:51:45;;;;;;;;;13.75;13.75;;;;;;;;5099444;27;46289;-71
2022/10/17 06:54:10;;;;;;;;;12.75;12.75;;;;;;;;5104167;27;45125;-75
2022/10/17 06:56:35;;;;;;;;;14.00;14.00;;;;;;;;5106346;27;45257;-72
2022/10/17 06:59:00;;;;;;;;;16.00;15.25;;;;;;;;5100899;27;45353;-76
2022/10/17 07:01:27;;;;;;;;;8.75;8.75;;;;;;;;5102469;27;45339;-78
2022/10/17 07:03:52;;;;;;;;;15.00;15.00;;;;;;;;5101247;27;45202;-76
2022/10/17 07:06:18;;;;;;;;;14.75;14.75;;;;;;;;5102275;27;45211;-72
2022/10/17 07:08:43;;;;;;;;;16.75;16.75;;;;;;;;5099315;27;45287;-70
2022/10/17 07:11:13;;;;;;;;;14.75;14.75;;;;;;;;5099375;27;46264;-70
2022/10/17 07:13:39;;;;;;;;;17.50;17.50;;;;;;;;5100385;27;45341;-70
2022/10/17 07:16:04;;;;;;;;;17.00;17.00;;;;;;;;5104340;27;45267;-77
2022/10/17 07:18:29;;;;;;;;;20.50;20.50;;;;;;;;5105041;27;45667;-70
2022/10/17 07:20:54;;;;;;;;;23.75;23.75;;;;;;;;5106091;27;46214;-81
2022/10/17 07:23:20;;;;;;;;;27.25;27.25;;;;;;;;5102996;27;45310;-72
2022/10/17 07:25:45;;;;;;;;;20.50;20.50;;;;;;;;5101293;27;45221;-71
2022/10/17 07:28:11;;;;;;;;;26.50;25.00;;;;;;;;5104340;27;45445;-74
2022/10/17 07:30:36;;;;;;;;;22.00;21.75;;;;;;;;5114526;27;46486;-72
2022/10/17 07:33:01;;;;;;;;;17.25;17.25;;;;;;;;5103052;27;45331;-70
2022/10/17 07:35:26;;;;;;;;;23.25;22.50;;;;;;;;5102236;27;45189;-73
2022/10/17 07:37:51;;;;;;;;;21.25;21.25;;;;;;;;5100384;27;45601;-76
2022/10/17 07:40:17;;;;;;;;;24.25;24.25;;;;;;;;5100539;27;47933;-76
2022/10/17 07:42:42;;;;;;;;;16.75;16.00;;;;;;;;5104031;27;45176;-76
2022/10/17 07:45:07;;;;;;;;;22.25;22.25;;;;;;;;5103609;27;45262;-78
2022/10/17 07:47:34;;;;;;;;;18.25;18.25;;;;;;;;5101340;27;45401;-82
2022/10/17 07:50:00;;;;;;;;;14.25;14.25;;;;;;;;5101696;27;46177;-73
2022/10/17 07:52:25;;;;;;;;;14.75;14.75;;;;;;;;5100845;27;45427;-80
2022/10/17 07:54:50;;;;;;;;;14.50;14.50;;;;;;;;5099252;27;45359;-73
2022/10/17 07:57:16;;;;;;;;;15.75;15.75;;;;;;;;5099161;27;45349;-76
2022/10/17 07:59:41;;;;;;;;;14.25;14.25;;;;;;;;5098778;27;45385;-75
2022/10/17 08:02:08;;;;;;;;;11.75;11.75;;;;;;;;5097587;27;45395;-79
2022/10/17 08:04:35;;;;;;;;;10.75;10.75;;;;;;;;5103574;27;45265;-78
2022/10/17 08:07:00;;;;;;;;;11.00;10.25;;;;;;;;5102554;27;45270;-78
2022/10/17 08:09:25;;;;;;;;;11.50;11.50;;;;;;;;5101648;27;45489;-82
2022/10/17 08:11:51;;;;;;;;;13.50;13.50;;;;;;;;5100541;27;45297;-74
2022/10/17 08:14:16;;;;;;;;;12.25;12.25;;;;;;;;5104146;27;45214;-75
2022/10/17 08:16:41;;;;;;;;;13.00;13.00;;;;;;;;5110755;27;45362;-74
2022/10/17 08:19:10;;;;;;;;;8.75;8.75;;;;;;;;5099590;27;46721;-75
2022/10/17 08:21:36;;;;;;;;;9.75;9.75;;;;;;;;5099001;27;45332;-79
2022/10/17 08:24:02;;;;;;;;;9.75;9.75;;;;;;;;5099266;27;45367;-81
2022/10/17 08:26:27;;;;;;;;;12.50;12.50;;;;;;;;5098495;27;45514;-80
2022/10/17 08:28:52;;;;;;;;;16.25;16.25;;;;;;;;5103274;27;45416;-80
2022/10/17 08:31:18;;;;;;;;;10.25;10.25;;;;;;;;5107002;27;45385;-75
2022/10/17 08:33:44;;;;;;;;;12.00;12.00;;;;;;;;5111442;27;45297;-78
2022/10/17 08:36:11;;;;;;;;;10.25;9.75;;;;;;;;5101702;27;45403;-74
2022/10/17 08:38:38;;;;;;;;;8.00;8.00;;;;;;;;5106585;27;45339;-74
2022/10/17 08:41:06;;;;;;;;;7.75;7.75;;;;;;;;5102029;27;45216;-71
2022/10/17 08:43:34;;;;;;;;;8.75;8.75;;;;;;;;5099749;27;45422;-72
2022/10/17 08:46:01;;;;;;;;;16.50;15.00;;;;;;;;5099314;27;45301;-78
2022/10/17 08:48:28;;;;;;;;;10.50;10.50;;;;;;;;5099901;27;46210;-75
2022/10/17 08:51:25;;;;;;;;;12.25;12.25;;;;;;;;5104384;27;45313;-73
2022/10/17 08:53:54;;;;;;;;;11.25;11.25;;;;;;;;5078075;27;45435;-78
2022/10/17 08:56:22;;;;;;;;;11.00;11.00;;;;;;;;5100579;27;45243;-76
2022/10/17 08:58:47;;;;;;;;;10.50;10.50;;;;;;;;5100355;27;46211;-77
2022/10/17 09:01:24;;;;;;;;;11.75;11.75;;;;;;;;5101516;27;45472;-71
2022/10/17 09:03:52;;;;;;;;;9.00;9.00;;;;;;;;5099625;27;45376;-79
2022/10/17 09:06:24;;;;;;;;;8.00;8.00;;;;;;;;5100333;27;45427;-78
2022/10/17 09:08:49;;;;;;;;;10.25;10.25;;;;;;;;5098777;27;45409;-73
2022/10/17 09:11:40;;;;;;;;;11.00;11.00;;;;;;;;5098795;27;45349;-69
2022/10/17 09:14:15;;;;;;;;;12.00;12.00;;;;;;;;5098506;27;45277;-73
2022/10/17 09:16:40;;;;;;;;;10.00;10.00;;;;;;;;5098573;27;45383;-70
2022/10/17 09:19:08;;;;;;;;;11.00;11.00;;;;;;;;5102706;27;46088;-75
2022/10/17 09:21:52;;;;;;;;;11.00;9.50;;;;;;;;5104281;27;45281;-82
2022/10/17 09:24:19;;;;;;;;;13.50;13.00;;;;;;;;5102027;27;45247;-77
2022/10/17 09:26:45;;;;;;;;;13.25;13.25;;;;;;;;5103119;27;45595;-75
2022/10/17 09:29:20;;;;;;;;;10.25;10.25;;;;;;;;5101202;27;47073;-82
2022/10/17 09:32:12;;;;;;;;;13.00;13.00;;;;;;;;5103961;27;45302;-75
2022/10/17 09:34:37;;;;;;;;;10.00;10.00;;;;;;;;5103542;27;45290;-75
2022/10/17 09:37:08;;;;;;;;;9.00;8.50;;;;;;;;5103921;27;45578;-83
2022/10/17 09:39:33;;;;;;;;;12.25;12.25;;;;;;;;5103163;27;45464;-70
2022/10/17 09:41:59;;;;;;;;;21.75;21.75;;;;;;;;5103965;27;45391;-72
2022/10/17 09:44:29;;;;;;;;;16.50;16.50;;;;;;;;5102401;27;45321;-70
2022/10/17 09:46:59;;;;;;;;;13.00;13.00;;;;;;;;5103455;27;45536;-74
2022/10/17 09:49:35;;;;;;;;;14.50;14.25;;;;;;;;5102506;27;45289;-75
2022/10/17 09:52:02;;;;;;;;;15.25;15.25;;;;;;;;5102053;27;45216;-74
2022/10/17 09:54:43;;;;;;;;;12.50;12.50;;;;;;;;5101064;27;45316;-72
2022/10/17 09:57:09;;;;;;;;;14.00;13.75;;;;;;;;5103002;27;45442;-69
2022/10/17 09:59:36;;;;;;;;;13.75;13.75;;;;;;;;5102668;27;46376;-76
2022/10/17 10:02:13;;;;;;;;;11.00;11.00;;;;;;;;5106815;27;45275;-70
2022/10/17 10:04:59;;;;;;;;;14.75;14.75;;;;;;;;5109774;27;45241;-69
2022/10/17 10:07:25;;;;;;;;;16.50;16.50;;;;;;;;5106178;27;45459;-79
2022/10/17 10:09:51;;;;;;;;;14.00;14.00;;;;;;;;5103211;27;45562;-77
2022/10/17 10:12:18;;;;;;;;;13.25;13.25;;;;;;;;5106925;27;45384;-75
2022/10/17 10:14:45;;;;;;;;;11.00;11.00;;;;;;;;5110790;27;45945;-75
2022/10/17 10:17:25;;;;;;;;;12.75;12.75;;;;;;;;5110876;27;45542;-73
2022/10/17 10:19:50;;;;;;;;;15.50;15.50;;;;;;;;5103975;27;46337;-80
2022/10/17 10:22:22;;;;;;;;;18.75;18.50;;;;;;;;5104210;27;45325;-76
2022/10/17 10:25:05;;;;;;;;;22.75;22.75;;;;;;;;5106441;27;45310;-77
2022/10/17 10:27:30;;;;;;;;;44.75;37.50;;;;;;;;5106646;27;45253;-78
2022/10/17 10:29:55;;;;;;;;;17.00;17.00;;;;;;;;5104847;27;45222;-82
2022/10/17 10:32:23;;;;;;;;;15.50;15.50;;;;;;;;5106876;27;45413;-73
2022/10/17 10:34:53;;;;;;;;;22.25;22.25;;;;;;;;5103429;27;45394;-72
2022/10/17 10:37:20;;;;;;;;;18.75;18.75;;;;;;;;5104069;27;45316;-76
2022/10/17 10:39:53;;;;;;;;;26.25;26.25;;;;;;;;5102769;27;46305;-80
2022/10/17 10:42:21;;;;;;;;;17.25;17.25;;;;;;;;5101572;27;45345;-78
2022/10/17 10:44:48;;;;;;;;;23.00;23.00;;;;;;;;5102671;27;44743;-81
2022/10/17 10:47:15;;;;;;;;;30.25;29.50;;;;;;;;5102463;27;45454;-80
2022/10/17 10:49:41;;;;;;;;;22.25;22.25;;;;;;;;5102091;27;45315;-75
2022/10/17 10:52:09;;;;;;;;;28.25;28.25;;;;;;;;5102666;27;45439;-76
2022/10/17 10:54:41;;;;;;;;;15.75;15.75;;;;;;;;5104575;27;45195;-78
2022/10/17 10:57:09;;;;;;;;;24.75;24.75;;;;;;;;5102989;27;45463;-80
2022/10/17 10:59:38;;;;;;;;;21.00;21.00;;;;;;;;5102967;27;46652;-79
2022/10/17 11:02:11;;;;;;;;;22.75;22.75;;;;;;;;5101815;27;45221;-76
2022/10/17 11:04:43;;;;;;;;;26.25;26.25;;;;;;;;5103208;27;45268;-81
2022/10/17 11:07:23;;;;;;;;;18.75;18.00;;;;;;;;5101530;27;45329;-81
2022/10/17 11:09:48;;;;;;;;;19.00;19.00;;;;;;;;5100393;27;45318;-79
2022/10/17 11:12:13;;;;;;;;;17.00;17.00;;;;;;;;5100670;27;45380;-82
2022/10/17 11:15:00;;;;;;;;;18.50;18.50;;;;;;;;5101411;27;45318;-79
2022/10/17 11:17:27;;;;;;;;;30.00;29.00;;;;;;;;5102031;27;45602;-74
2022/10/17 11:19:55;;;;;;;;;21.50;21.50;;;;;;;;5102332;27;47286;-72
2022/10/17 11:22:36;;;;;;;;;23.25;21.25;;;;;;;;5102157;27;45278;-71
2022/10/17 11:25:13;;;;;;;;;25.75;25.25;;;;;;;;5099829;27;45227;-70
2022/10/17 11:27:39;;;;;;;;;21.75;21.75;;;;;;;;5107454;27;45486;-75
2022/10/17 11:30:04;;;;;;;;;28.50;28.50;;;;;;;;5104737;27;45347;-78
2022/10/17 11:32:41;;;;;;;;;19.75;19.75;;;;;;;;5100930;27;45248;-75
2022/10/17 11:35:15;;;;;;;;;23.50;23.50;;;;;;;;5101142;27;45342;-76
2022/10/17 11:37:42;;;;;;;;;39.50;35.00;;;;;;;;5103203;27;45457;-75
2022/10/17 11:40:14;;;;;;;;;22.25;21.50;;;;;;;;5100986;27;46015;-72
2022/10/17 11:42:51;;;;;;;;;20.00;20.00;;;;;;;;5100785;27;45766;-80
2022/10/17 11:45:18;;;;;;;;;19.25;19.25;;;;;;;;5104351;27;45254;-81
2022/10/17 11:47:49;;;;;;;;;30.50;29.50;;;;;;;;5104492;27;45194;-81
2022/10/17 11:50:32;;;;;;;;;20.75;20.50;;;;;;;;5107965;27;45616;-82
2022/10/17 11:53:08;;;;;;;;;24.25;24.25;;;;;;;;5110090;27;45247;-78
2022/10/17 11:55:34;;;;;;;;;22.25;22.25;;;;;;;;5106565;27;45244;-77
2022/10/17 11:58:21;;;;;;;;;21.50;21.50;;;;;;;;5104659;27;45424;-77
2022/10/17 12:00:52;;;;;;;;;18.75;18.75;;;;;;;;5088962;27;47580;-75
2022/10/17 12:03:24;;;;;;;;;24.25;24.25;;;;;;;;5107889;27;45374;-75
2022/10/17 12:05:55;;;;;;;;;20.50;20.50;;;;;;;;5108748;27;45395;-75
2022/10/17 12:08:33;;;;;;;;;24.75;24.75;;;;;;;;5104162;27;45220;-73
2022/10/17 12:10:58;;;;;;;;;20.75;20.75;;;;;;;;5105802;27;46080;-77
2022/10/17 12:13:27;;;;;;;;;17.50;17.50;;;;;;;;5103161;27;45267;-71
2022/10/17 12:15:53;;;;;;;;;26.25;26.25;;;;;;;;5104833;27;45353;-73
2022/10/17 12:18:18;;;;;;;;;19.00;19.00;;;;;;;;5103456;27;45328;-77
2022/10/17 12:20:54;;;;;;;;;16.00;15.75;;;;;;;;5100649;27;47353;-77
2022/10/17 12:23:23;;;;;;;;;17.25;17.25;;;;;;;;5103734;27;45364;-77
2022/10/17 12:25:49;;;;;;;;;31.00;29.75;;;;;;;;5105324;27;45262;-73
2022/10/17 12:28:18;;;;;;;;;25.00;25.00;;;;;;;;5105674;27;45329;-75
2022/10/17 12:30:51;;;;;;;;;16.75;16.75;;;;;;;;5102900;27;47200;-72
2022/10/17 12:33:21;;;;;;;;;22.75;22.75;;;;;;;;5105860;27;44681;-79
2022/10/17 12:35:47;;;;;;;;;18.25;18.25;;;;;;;;5101464;27;45266;-73
2022/10/17 12:38:20;;;;;;;;;15.25;15.25;;;;;;;;5100952;27;45465;-71
2022/10/17 12:40:51;;;;;;;;;25.75;25.75;;;;;;;;5099176;27;45996;-71
2022/10/17 12:43:16;;;;;;;;;23.50;22.00;;;;;;;;5099514;27;45356;-75
2022/10/17 12:45:47;;;;;;;;;21.00;21.00;;;;;;;;5098397;27;45431;-73
2022/10/17 12:48:33;;;;;;;;;33.50;31.25;;;;;;;;5098051;27;45513;-73
2022/10/17 12:51:10;;;;;;;;;20.25;20.25;;;;;;;;5100712;27;45976;-72
2022/10/17 12:53:39;;;;;;;;;19.50;19.50;;;;;;;;5105777;27;45385;-74
2022/10/17 12:56:04;;;;;;;;;14.75;13.25;;;;;;;;5108121;27;45463;-78
2022/10/17 12:58:30;;;;;;;;;21.25;21.25;;;;;;;;5103379;27;45241;-77
2022/10/17 13:00:56;;;;;;;;;15.50;15.50;;;;;;;;5102714;27;45568;-71
2022/10/17 13:03:27;;;;;;;;;21.50;21.50;;;;;;;;5100911;27;45329;-74
2022/10/17 13:05:54;;;;;;;;;14.00;14.00;;;;;;;;5098337;27;45377;-76
2022/10/17 13:08:30;;;;;;;;;20.25;20.25;;;;;;;;5098230;27;45511;-72
2022/10/17 13:10:56;;;;;;;;;18.25;18.00;;;;;;;;5099439;27;46351;-72
2022/10/17 13:13:21;;;;;;;;;17.25;17.25;;;;;;;;5099646;27;45266;-78
2022/10/17 13:15:48;;;;;;;;;19.00;19.00;;;;;;;;5098689;27;45220;-78
2022/10/17 13:18:31;;;;;;;;;22.25;22.25;;;;;;;;5098986;27;45285;-76
2022/10/17 13:21:05;;;;;;;;;20.50;20.50;;;;;;;;5103398;27;46211;-79
2022/10/17 13:23:32;;;;;;;;;25.50;25.50;;;;;;;;5104542;27;45211;-77
2022/10/17 13:26:19;;;;;;;;;14.75;14.75;;;;;;;;5101730;27;45281;-80
2022/10/17 13:28:45;;;;;;;;;22.75;22.75;;;;;;;;5103241;27;45158;-82
2022/10/17 13:31:25;;;;;;;;;21.75;21.75;;;;;;;;5100364;27;45412;-74
2022/10/17 13:33:54;;;;;;;;;19.50;19.50;;;;;;;;5099693;27;45265;-73
2022/10/17 13:36:19;;;;;;;;;24.00;24.00;;;;;;;;5102271;27;45243;-79
2022/10/17 13:38:45;;;;;;;;;22.00;22.00;;;;;;;;5105604;27;45420;-75
2022/10/17 13:41:15;;;;;;;;;17.00;17.00;;;;;;;;5107909;27;45264;-80
2022/10/17 13:43:40;;;;;;;;;19.75;19.75;;;;;;;;5105194;27;45349;-79
2022/10/17 13:46:24;;;;;;;;;20.00;20.00;;;;;;;;5110798;27;44761;-81
2022/10/17 13:48:49;;;;;;;;;21.00;21.00;;;;;;;;5110784;27;45294;-80
2022/10/17 13:51:14;;;;;;;;;21.00;21.00;;;;;;;;5106132;27;48295;-74
2022/10/17 13:53:42;;;;;;;;;19.25;19.25;;;;;;;;5103909;27;45304;-78
2022/10/17 13:56:24;;;;;;;;;24.75;24.75;;;;;;;;5107219;27;45249;-78
2022/10/17 13:58:51;;;;;;;;;23.25;23.25;;;;;;;;5109131;27;45140;-82
2022/10/17 14:01:17;;;;;;;;;17.75;17.75;;;;;;;;5099368;27;45801;-82
2022/10/17 14:03:43;;;;;;;;;16.00;16.00;;;;;;;;5098283;27;45267;-83
2022/10/17 14:06:19;;;;;;;;;18.00;18.00;;;;;;;;5097453;27;45184;-69
2022/10/17 14:09:05;;;;;;;;;27.50;27.50;;;;;;;;5098636;27;45433;-70
2022/10/17 14:11:35;;;;;;;;;14.00;14.00;;;;;;;;5101228;27;46585;-70
2022/10/17 14:14:01;;;;;;;;;15.50;15.50;;;;;;;;5100927;27;45273;-74
2022/10/17 14:16:33;;;;;;;;;16.75;16.75;;;;;;;;5104818;27;45305;-73
2022/10/17 14:18:58;;;;;;;;;17.75;17.75;;;;;;;;5102473;27;45258;-72
2022/10/17 14:21:27;;;;;;;;;11.50;11.50;;;;;;;;5102964;27;46423;-72
2022/10/17 14:24:11;;;;;;;;;15.50;15.50;;;;;;;;5103543;27;45407;-70
2022/10/17 14:26:45;;;;;;;;;15.00;15.00;;;;;;;;5100254;27;45265;-78
2022/10/17 14:29:42;;;;;;;;;35.75;32.75;;;;;;;;5101835;27;45245;-81